createdAt,value
2023-07-04T00:00:41.378Z,101533.78
2023-07-04T00:03:07.751Z,101527.81
2023-07-04T00:05:34.142Z,101532.31
2023-07-04T00:08:00.421Z,101534.31
2023-07-04T00:10:26.711Z,101533.13
2023-07-04T00:12:53.062Z,101524.63
2023-07-04T00:15:19.414Z,101524.63
2023-07-04T00:17:45.760Z,101522.91
2023-07-04T00:20:12.044Z,101517.47
2023-07-04T00:22:38.364Z,101521.72
2023-07-04T00:25:04.624Z,101521.59
2023-07-04T00:27:30.876Z,101518.75
2023-07-04T00:29:57.168Z,101519.81
2023-07-04T00:32:23.501Z,101516.19
2023-07-04T00:34:49.800Z,101520.34
2023-07-04T00:37:16.098Z,101514.03
2023-07-04T00:39:42.389Z,101518.38
2023-07-04T00:42:08.673Z,101521.03
2023-07-04T00:44:34.975Z,101515.03
2023-07-04T00:47:01.274Z,101517.75
2023-07-04T00:49:27.536Z,101524.69
2023-07-04T00:51:53.835Z,101530.00
2023-07-04T00:54:20.081Z,101536.19
2023-07-04T00:56:46.354Z,101528.53
2023-07-04T00:59:12.636Z,101535.75
2023-07-04T01:01:38.919Z,101536.50
2023-07-04T01:04:05.235Z,101541.81
2023-07-04T01:06:31.520Z,101536.75
2023-07-04T01:08:57.825Z,101537.69
2023-07-04T01:11:24.122Z,101540.47
2023-07-04T01:13:50.487Z,101546.72
2023-07-04T01:16:16.909Z,101533.97
2023-07-04T01:18:43.264Z,101532.31
2023-07-04T01:21:09.546Z,101529.25
2023-07-04T01:23:35.838Z,101517.41
2023-07-04T01:26:02.116Z,101509.78
2023-07-04T01:28:28.387Z,101510.97
2023-07-04T01:30:54.827Z,101512.88
2023-07-04T01:33:21.339Z,101505.09
2023-07-04T01:35:47.624Z,101507.13
2023-07-04T01:38:13.904Z,101513.81
2023-07-04T01:40:40.186Z,101520.84
2023-07-04T01:43:06.494Z,101512.44
2023-07-04T01:45:32.869Z,101511.25
2023-07-04T01:47:59.352Z,101512.84
2023-07-04T01:50:25.722Z,101518.38
2023-07-04T01:52:51.983Z,101522.22
2023-07-04T01:55:18.271Z,101525.31
2023-07-04T01:57:44.561Z,101531.78
2023-07-04T02:00:10.843Z,101533.94
2023-07-04T02:02:37.124Z,101523.50
2023-07-04T02:05:03.472Z,101522.25
2023-07-04T02:07:29.750Z,101526.69
2023-07-04T02:09:56.038Z,101528.38
2023-07-04T02:12:22.360Z,101533.19
2023-07-04T02:14:48.640Z,101537.19
2023-07-04T02:17:15.170Z,101543.59
2023-07-04T02:19:41.489Z,101541.13
2023-07-04T02:22:07.783Z,101528.81
2023-07-04T02:24:34.047Z,101530.63
2023-07-04T02:27:00.329Z,101531.16
2023-07-04T02:29:26.637Z,101541.44
2023-07-04T02:31:52.978Z,101537.44
2023-07-04T02:34:19.251Z,101536.91
2023-07-04T02:36:45.544Z,101544.22
2023-07-04T02:39:11.818Z,101547.19
2023-07-04T02:41:38.102Z,101551.00
2023-07-04T02:44:04.407Z,101557.47
2023-07-04T02:46:30.697Z,101558.41
2023-07-04T02:48:57.071Z,101568.28
2023-07-04T02:51:23.405Z,101575.41
2023-07-04T02:53:49.710Z,101579.63
2023-07-04T02:56:15.966Z,101589.31
2023-07-04T02:58:42.258Z,101584.75
2023-07-04T03:01:08.670Z,101588.81
2023-07-04T03:03:35.263Z,101586.25
2023-07-04T03:06:01.690Z,101582.75
2023-07-04T03:08:28.007Z,101581.34
2023-07-04T03:10:54.412Z,101578.88
2023-07-04T03:13:21.094Z,101584.31
2023-07-04T03:15:47.444Z,101595.88
2023-07-04T03:18:13.810Z,101589.81
2023-07-04T03:20:40.162Z,101569.53
2023-07-04T03:23:06.454Z,101569.94
2023-07-04T03:25:32.801Z,101567.69
2023-07-04T03:27:59.087Z,101449.69
2023-07-04T03:30:25.366Z,101314.84
2023-07-04T03:32:51.645Z,101323.94
2023-07-04T03:35:17.965Z,101332.97
2023-07-04T03:37:44.293Z,101331.25
2023-07-04T03:40:10.665Z,101335.91
2023-07-04T03:42:36.963Z,101339.94
2023-07-04T03:45:03.290Z,101347.28
2023-07-04T03:47:29.622Z,101346.97
2023-07-04T03:49:55.989Z,101355.97
2023-07-04T03:52:22.302Z,101359.25
2023-07-04T03:54:48.615Z,101364.56
2023-07-04T03:57:16.593Z,101366.25
2023-07-04T03:59:42.994Z,101373.91
2023-07-04T04:02:09.252Z,101373.50
2023-07-04T04:04:37.378Z,101369.69
2023-07-04T04:07:06.130Z,101371.19
2023-07-04T04:09:32.461Z,101379.13
2023-07-04T04:11:58.780Z,101371.06
2023-07-04T04:14:25.066Z,101369.91
2023-07-04T04:16:51.395Z,101377.56
2023-07-04T04:19:17.729Z,101369.78
2023-07-04T04:21:43.990Z,101376.16
2023-07-04T04:24:10.297Z,101379.22
2023-07-04T04:26:36.558Z,101376.56
2023-07-04T04:29:02.903Z,101376.34
2023-07-04T04:31:29.249Z,101377.09
2023-07-04T04:33:55.554Z,101374.25
2023-07-04T04:36:21.824Z,101383.25
2023-07-04T04:38:48.175Z,101372.66
2023-07-04T04:41:14.471Z,101374.34
2023-07-04T04:43:40.789Z,101366.59
2023-07-04T04:46:07.112Z,101365.75
2023-07-04T04:48:33.412Z,101362.91
2023-07-04T04:50:59.660Z,101366.94
2023-07-04T04:53:25.956Z,101372.34
2023-07-04T04:55:52.233Z,101373.63
2023-07-04T04:58:18.527Z,101378.19
2023-07-04T05:00:44.863Z,101375.00
2023-07-04T05:03:11.117Z,101372.47
2023-07-04T05:05:37.393Z,101375.44
2023-07-04T05:08:03.694Z,101371.50
2023-07-04T05:10:29.981Z,101369.56
2023-07-04T05:12:56.270Z,101373.50
2023-07-04T05:15:22.529Z,101373.28
2023-07-04T05:17:48.857Z,101381.03
2023-07-04T05:20:15.214Z,101375.50
2023-07-04T05:22:41.504Z,101381.97
2023-07-04T05:25:07.801Z,101381.63
2023-07-04T05:30:00.461Z,101372.94
2023-07-04T05:32:26.806Z,101362.53
2023-07-04T05:34:53.159Z,101364.41
2023-07-04T05:37:19.501Z,101377.63
2023-07-04T05:39:45.797Z,101382.59
2023-07-04T05:42:12.129Z,101387.97
2023-07-04T05:44:38.508Z,101386.53
2023-07-04T05:47:04.881Z,101382.47
2023-07-04T05:49:31.185Z,101377.50
2023-07-04T05:51:57.499Z,101384.31
2023-07-04T05:54:23.813Z,101383.28
2023-07-04T05:56:50.070Z,101385.03
2023-07-04T05:59:16.372Z,101384.16
2023-07-04T06:01:42.666Z,101385.50
2023-07-04T06:04:09.111Z,101387.81
2023-07-04T06:06:35.532Z,101383.59
2023-07-04T06:09:01.879Z,101376.19
2023-07-04T06:11:28.183Z,101379.00
2023-07-04T06:13:54.563Z,101381.31
2023-07-04T06:16:21.014Z,101376.56
2023-07-04T06:18:47.309Z,101379.75
2023-07-04T06:21:13.592Z,101375.28
2023-07-04T06:23:39.903Z,101377.69
2023-07-04T06:26:06.187Z,101377.78
2023-07-04T06:28:32.523Z,101370.63
2023-07-04T06:30:58.869Z,101376.16
2023-07-04T06:33:25.559Z,101378.69
2023-07-04T06:35:51.829Z,101378.97
2023-07-04T06:38:18.116Z,101377.72
2023-07-04T06:40:44.452Z,101383.78
2023-07-04T06:43:10.811Z,101387.38
2023-07-04T06:45:37.166Z,101378.75
2023-07-04T06:48:03.469Z,101386.00
2023-07-04T06:50:30.436Z,101389.59
2023-07-04T06:52:56.835Z,101386.88
2023-07-04T06:55:23.116Z,101381.84
2023-07-04T06:57:50.193Z,101387.69
2023-07-04T07:00:16.669Z,101389.72
2023-07-04T07:02:43.203Z,101391.28
2023-07-04T07:05:09.565Z,101386.84
2023-07-04T07:07:35.851Z,101392.91
2023-07-04T07:10:02.226Z,101399.53
2023-07-04T07:12:28.515Z,101391.59
2023-07-04T07:14:54.759Z,101402.28
2023-07-04T07:17:21.199Z,101409.69
2023-07-04T07:19:47.550Z,101404.06
2023-07-04T07:22:13.831Z,101403.72
2023-07-04T07:24:40.129Z,101396.09
2023-07-04T07:27:06.445Z,101392.50
2023-07-04T07:29:33.395Z,101396.94
2023-07-04T07:31:59.845Z,101386.22
2023-07-04T07:34:26.242Z,101384.59
2023-07-04T07:36:52.528Z,101386.84
2023-07-04T07:39:18.838Z,101393.25
2023-07-04T07:41:45.137Z,101382.88
2023-07-04T07:44:11.518Z,101388.44
2023-07-04T07:46:38.204Z,101378.50
2023-07-04T07:49:04.691Z,101374.88
2023-07-04T07:51:31.026Z,101381.47
2023-07-04T07:53:57.390Z,101376.84
2023-07-04T07:56:23.679Z,101382.19
2023-07-04T07:58:50.023Z,101383.59
2023-07-04T08:01:16.308Z,101382.34
2023-07-04T08:03:42.897Z,101375.84
2023-07-04T08:06:09.319Z,101373.19
2023-07-04T08:08:35.642Z,101388.00
2023-07-04T08:11:01.926Z,101387.84
2023-07-04T08:13:28.285Z,101375.16
2023-07-04T08:15:54.672Z,101370.94
2023-07-04T08:18:21.012Z,101374.47
2023-07-04T08:20:47.315Z,101375.16
2023-07-04T08:23:13.676Z,101363.72
2023-07-04T08:25:40.005Z,101362.84
2023-07-04T08:28:06.275Z,101359.44
2023-07-04T08:30:32.581Z,101361.94
2023-07-04T08:32:58.928Z,101364.44
2023-07-04T08:35:25.250Z,101368.09
2023-07-04T08:37:51.516Z,101366.31
2023-07-04T08:40:17.825Z,101376.56
2023-07-04T08:42:44.143Z,101371.91
2023-07-04T08:45:10.443Z,101372.06
2023-07-04T08:47:36.757Z,101370.28
2023-07-04T08:50:03.279Z,101367.41
2023-07-04T08:52:29.644Z,101375.50
2023-07-04T08:54:55.990Z,101372.91
2023-07-04T08:57:22.332Z,101369.84
2023-07-04T08:59:48.653Z,101363.19
2023-07-04T09:02:14.940Z,101364.66
2023-07-04T09:04:41.555Z,101362.28
2023-07-04T09:07:07.844Z,101362.75
2023-07-04T09:09:34.132Z,101371.47
2023-07-04T09:12:00.425Z,101364.97
2023-07-04T09:14:26.734Z,101367.03
2023-07-04T09:16:53.056Z,101366.41
2023-07-04T09:19:19.409Z,101362.34
2023-07-04T09:21:45.698Z,101369.00
2023-07-04T09:24:12.019Z,101409.25
2023-07-04T09:26:38.296Z,101392.03
2023-07-04T09:29:04.606Z,101380.25
2023-07-04T09:31:31.037Z,101362.28
2023-07-04T09:33:57.534Z,101361.59
2023-07-04T09:36:23.808Z,101362.84
2023-07-04T09:38:50.105Z,101352.00
2023-07-04T09:41:16.480Z,101364.88
2023-07-04T09:43:42.835Z,101372.53
2023-07-04T09:46:09.215Z,101369.44
2023-07-04T09:48:35.571Z,101381.31
2023-07-04T09:51:01.832Z,101377.06
2023-07-04T09:53:28.182Z,101391.16
2023-07-04T09:55:54.714Z,101386.69
2023-07-04T09:58:21.094Z,101382.66
2023-07-04T10:00:47.370Z,101392.00
2023-07-04T10:03:13.714Z,101384.06
2023-07-04T10:05:40.068Z,101376.34
2023-07-04T10:08:06.349Z,101375.72
2023-07-04T10:10:32.669Z,101374.13
2023-07-04T10:12:58.986Z,101386.84
2023-07-04T10:15:25.277Z,101400.25
2023-07-04T10:17:51.684Z,101388.66
2023-07-04T10:20:17.982Z,101383.91
2023-07-04T10:22:44.274Z,101375.88
2023-07-04T10:25:10.587Z,101368.41
2023-07-04T10:27:36.952Z,101361.91
2023-07-04T10:30:03.644Z,101366.44
2023-07-04T10:32:30.001Z,101355.88
2023-07-04T10:34:56.307Z,101357.72
2023-07-04T10:37:22.607Z,101352.44
2023-07-04T10:39:48.902Z,101350.13
2023-07-04T10:42:15.176Z,101346.28
2023-07-04T10:44:41.454Z,101343.94
2023-07-04T10:47:07.737Z,101344.97
2023-07-04T10:49:34.055Z,101331.00
2023-07-04T10:52:00.380Z,101324.72
2023-07-04T10:54:26.678Z,101325.00
2023-07-04T10:56:52.968Z,101334.88
2023-07-04T10:59:19.274Z,101325.59
2023-07-04T11:01:45.636Z,101340.44
2023-07-04T11:04:11.942Z,101343.78
2023-07-04T11:06:38.344Z,101340.59
2023-07-04T11:09:04.640Z,101347.34
2023-07-04T11:11:30.959Z,101360.47
2023-07-04T11:13:57.365Z,101353.69
2023-07-04T11:16:23.710Z,101359.56
2023-07-04T11:18:50.051Z,101357.75
2023-07-04T11:21:16.324Z,101371.91
2023-07-04T11:23:42.623Z,101370.88
2023-07-04T11:26:08.876Z,101381.47
2023-07-04T11:28:35.186Z,101360.59
2023-07-04T11:31:01.576Z,101363.47
2023-07-04T11:33:27.910Z,101360.84
2023-07-04T11:35:54.232Z,101365.88
2023-07-04T11:38:20.531Z,101356.59
2023-07-04T11:40:46.810Z,101358.06
2023-07-04T11:43:13.074Z,101361.13
2023-07-04T11:45:39.392Z,101376.00
2023-07-04T11:48:05.810Z,101366.88
2023-07-04T11:50:32.108Z,101382.84
2023-07-04T11:52:58.436Z,101371.75
2023-07-04T11:55:24.732Z,101373.28
2023-07-04T11:57:51.051Z,101372.91
2023-07-04T12:00:17.365Z,101368.75
2023-07-04T12:02:43.762Z,101373.63
2023-07-04T12:05:10.055Z,101359.94
2023-07-04T12:07:36.367Z,101363.97
2023-07-04T12:10:02.671Z,101368.16
2023-07-04T12:12:28.989Z,101366.34
2023-07-04T12:14:55.290Z,101364.31
2023-07-04T12:17:21.581Z,101362.13
2023-07-04T12:19:47.906Z,101359.59
2023-07-04T12:22:14.230Z,101357.59
2023-07-04T12:24:40.481Z,101363.81
2023-07-04T12:27:06.754Z,101346.81
2023-07-04T12:32:02.238Z,101354.56
2023-07-04T12:34:28.679Z,101357.59
2023-07-04T12:37:01.608Z,101346.13
2023-07-04T12:39:28.281Z,101357.41
2023-07-04T12:41:54.551Z,101356.41
2023-07-04T12:51:48.423Z,101362.31
2023-07-04T12:54:14.686Z,101369.53
2023-07-04T12:56:41.022Z,101364.72
2023-07-04T12:59:07.320Z,101370.59
2023-07-04T13:01:33.701Z,101360.25
2023-07-04T13:04:00.464Z,101362.28
2023-07-04T13:06:26.965Z,101357.84
2023-07-04T13:08:53.228Z,101357.34
2023-07-04T13:11:19.531Z,101361.94
2023-07-04T13:13:45.866Z,101357.91
2023-07-04T13:16:12.210Z,101353.88
2023-07-04T13:18:38.487Z,101351.00
2023-07-04T13:21:04.761Z,101356.13
2023-07-04T13:26:00.404Z,101357.75
2023-07-04T13:32:59.566Z,101358.41
2023-07-04T13:33:42.225Z,101356.88
2023-07-04T13:36:08.572Z,101355.56
2023-07-04T13:41:04.058Z,101347.09
2023-07-04T13:45:59.567Z,101349.56
2023-07-04T13:48:25.894Z,101347.50
2023-07-04T13:50:52.488Z,101351.31
2023-07-04T13:53:19.012Z,101346.00
2023-07-04T13:55:45.348Z,101348.88
2023-07-04T13:58:11.653Z,101351.00
2023-07-04T14:03:00.963Z,101349.03
2023-07-04T14:05:57.818Z,101343.97
2023-07-04T14:08:25.789Z,101352.91
2023-07-04T14:10:53.267Z,101341.91
2023-07-04T14:13:19.689Z,101343.09
2023-07-04T14:20:44.478Z,101337.41
2023-07-04T14:23:10.887Z,101345.66
2023-07-04T14:25:37.230Z,101342.44
2023-07-04T14:28:03.558Z,101344.72
2023-07-04T14:30:29.856Z,101342.75
2023-07-04T14:32:56.779Z,101336.47
2023-07-04T14:35:24.348Z,101342.69
2023-07-04T14:37:50.595Z,101332.44
2023-07-04T14:42:49.234Z,101332.34
2023-07-04T14:45:15.702Z,101329.69
2023-07-04T14:47:42.050Z,101332.84
2023-07-04T14:50:08.393Z,101327.53
2023-07-04T14:52:34.687Z,101331.81
2023-07-04T14:55:01.000Z,101336.16
2023-07-04T14:57:27.253Z,101332.34
2023-07-04T14:59:53.552Z,101325.50
2023-07-04T15:02:19.869Z,101323.38
2023-07-04T15:04:46.147Z,101325.53
2023-07-04T15:07:12.429Z,101324.78
2023-07-04T15:09:38.752Z,101312.13
2023-07-04T15:12:05.074Z,101314.19
2023-07-04T15:14:31.395Z,101315.94
2023-07-04T15:16:57.823Z,101314.94
2023-07-04T15:19:24.196Z,101305.56
2023-07-04T15:21:50.481Z,101300.13
2023-07-04T15:24:16.899Z,101308.88
2023-07-04T15:26:43.245Z,101308.75
2023-07-04T15:29:09.539Z,101301.97
2023-07-04T15:31:35.830Z,101302.41
2023-07-04T15:34:02.169Z,101293.41
2023-07-04T15:36:28.425Z,101288.53
2023-07-04T15:38:54.758Z,101298.56
2023-07-04T15:41:21.073Z,101299.16
2023-07-04T15:43:47.410Z,101298.81
2023-07-04T15:46:13.897Z,101289.53
2023-07-04T15:48:40.262Z,101281.66
2023-07-04T15:51:06.566Z,101280.78
2023-07-04T15:53:32.932Z,101276.50
2023-07-04T15:55:59.253Z,101278.16
2023-07-04T15:58:25.552Z,101279.97
2023-07-04T16:00:51.916Z,101276.56
2023-07-04T16:03:18.473Z,101277.13
2023-07-04T16:05:44.832Z,101279.31
2023-07-04T16:08:11.123Z,101276.47
2023-07-04T16:10:37.438Z,101275.78
2023-07-04T16:13:03.715Z,101266.81
2023-07-04T16:15:29.970Z,101271.34
2023-07-04T16:17:56.309Z,101262.13
2023-07-04T16:20:24.413Z,101263.84
2023-07-04T16:22:52.224Z,101258.63
2023-07-04T16:25:18.485Z,101260.81
2023-07-04T16:27:44.723Z,101259.13
2023-07-04T16:30:11.011Z,101259.66
2023-07-04T16:32:37.318Z,101255.94
2023-07-04T16:35:03.701Z,101258.63
2023-07-04T16:37:29.960Z,101260.50
2023-07-04T16:39:56.228Z,101256.78
2023-07-04T16:42:22.547Z,101259.81
2023-07-04T16:44:48.857Z,101248.22
2023-07-04T16:47:15.137Z,101257.44
2023-07-04T16:49:41.528Z,101252.91
2023-07-04T16:52:07.847Z,101261.50
2023-07-04T16:54:34.150Z,101258.22
2023-07-04T16:57:00.442Z,101258.69
2023-07-04T16:59:26.750Z,101265.06
2023-07-04T17:01:53.146Z,101264.09
2023-07-04T17:04:19.533Z,101265.09
2023-07-04T17:06:45.837Z,101266.22
2023-07-04T17:09:13.519Z,101263.28
2023-07-04T17:11:39.919Z,101266.13
2023-07-04T17:14:06.261Z,101269.91
2023-07-04T17:16:32.687Z,101268.81
2023-07-04T17:18:59.038Z,101262.91
2023-07-04T17:21:25.311Z,101264.88
2023-07-04T17:23:53.109Z,101258.81
2023-07-04T17:26:20.668Z,101259.28
2023-07-04T17:28:46.966Z,101268.00
2023-07-04T17:31:13.256Z,101267.69
2023-07-04T17:33:39.594Z,101266.91
2023-07-04T17:36:05.898Z,101273.41
2023-07-04T17:38:33.103Z,101285.06
2023-07-04T17:41:00.359Z,101290.63
2023-07-04T17:43:26.650Z,101282.06
2023-07-04T17:45:53.184Z,101283.31
2023-07-04T17:48:19.582Z,101278.63
2023-07-04T17:50:45.897Z,101275.63
2023-07-04T17:53:12.176Z,101275.03
2023-07-04T17:55:38.460Z,101274.00
2023-07-04T17:58:04.760Z,101269.44
2023-07-04T18:00:31.039Z,101266.22
2023-07-04T18:02:57.390Z,101266.25
2023-07-04T18:05:23.755Z,101266.66
2023-07-04T18:07:50.081Z,101271.34
2023-07-04T18:10:16.424Z,101270.25
2023-07-04T18:12:42.716Z,101258.41
2023-07-04T18:15:08.965Z,101264.47
2023-07-04T18:17:35.267Z,101266.00
2023-07-04T18:20:01.536Z,101256.72
2023-07-04T18:22:27.826Z,101262.38
2023-07-04T18:24:54.156Z,101259.25
2023-07-04T18:27:20.465Z,101251.06
2023-07-04T18:29:46.735Z,101261.75
2023-07-04T18:32:13.037Z,101253.75
2023-07-04T18:34:39.340Z,101248.25
2023-07-04T18:37:05.621Z,101247.09
2023-07-04T18:39:31.929Z,101242.03
2023-07-04T18:41:58.237Z,101244.97
2023-07-04T18:44:24.489Z,101254.78
2023-07-04T18:46:50.859Z,101256.28
2023-07-04T18:49:17.368Z,101250.66
2023-07-04T18:51:43.864Z,101247.81
2023-07-04T18:54:10.146Z,101258.63
2023-07-04T18:56:36.453Z,101256.94
2023-07-04T18:59:02.742Z,101253.44
2023-07-04T19:01:29.187Z,101265.53
2023-07-04T19:03:55.590Z,101276.41
2023-07-04T19:06:21.928Z,101287.78
2023-07-04T19:08:48.179Z,101283.97
2023-07-04T19:11:14.489Z,101290.84
2023-07-04T19:13:40.811Z,101287.16
2023-07-04T19:16:07.156Z,101300.34
2023-07-04T19:18:33.505Z,101306.22
2023-07-04T19:20:59.824Z,101306.63
2023-07-04T19:23:26.146Z,101311.38
2023-07-04T19:25:52.447Z,101314.47
2023-07-04T19:28:18.703Z,101319.84
2023-07-04T19:30:45.015Z,101324.13
2023-07-04T19:33:11.273Z,101336.31
2023-07-04T19:35:37.569Z,101345.06
2023-07-04T19:38:03.834Z,101351.91
2023-07-04T19:40:30.149Z,101340.91
2023-07-04T19:42:56.464Z,101350.41
2023-07-04T19:45:22.760Z,101353.06
2023-07-04T19:47:49.085Z,101347.16
2023-07-04T19:50:15.414Z,101350.91
2023-07-04T19:52:41.690Z,101353.94
2023-07-04T19:55:07.994Z,101354.22
2023-07-04T19:57:34.309Z,101346.72
2023-07-04T20:00:00.613Z,101347.09
2023-07-04T20:02:26.949Z,101342.22
2023-07-04T20:04:53.262Z,101334.88
2023-07-04T20:07:19.568Z,101313.91
2023-07-04T20:09:45.840Z,101308.09
2023-07-04T20:12:12.109Z,101310.44
2023-07-04T20:14:38.415Z,101320.50
2023-07-04T20:17:04.705Z,101327.06
2023-07-04T20:19:30.972Z,101329.00
2023-07-04T20:21:57.263Z,101341.59
2023-07-04T20:24:23.527Z,101344.50
2023-07-04T20:26:49.821Z,101342.69
2023-07-04T20:29:16.081Z,101337.22
2023-07-04T20:31:42.439Z,101344.84
2023-07-04T20:34:08.777Z,101338.44
2023-07-04T20:36:35.078Z,101351.25
2023-07-04T20:39:01.378Z,101346.91
2023-07-04T20:41:27.647Z,101354.63
2023-07-04T20:43:53.945Z,101355.34
2023-07-04T20:46:20.297Z,101362.38
2023-07-04T20:48:46.601Z,101364.19
2023-07-04T20:51:12.908Z,101360.09
2023-07-04T20:53:39.189Z,101357.19
2023-07-04T20:56:05.464Z,101362.75
2023-07-04T20:58:31.752Z,101351.78
2023-07-04T21:00:58.113Z,101352.84
2023-07-04T21:03:25.016Z,101357.31
2023-07-04T21:05:51.777Z,101362.66
2023-07-04T21:08:18.223Z,101362.78
2023-07-04T21:10:44.513Z,101360.72
2023-07-04T21:13:10.802Z,101354.78
2023-07-04T21:15:37.196Z,101347.03
2023-07-04T21:18:03.697Z,101348.16
2023-07-04T21:20:30.198Z,101345.00
2023-07-04T21:22:56.528Z,101343.66
2023-07-04T21:25:22.782Z,101340.28
2023-07-04T21:27:49.084Z,101344.28
2023-07-04T21:30:15.443Z,101345.00
2023-07-04T21:32:41.892Z,101349.22
2023-07-04T21:35:08.236Z,101347.06
2023-07-04T21:37:34.522Z,101344.53
2023-07-04T21:40:00.782Z,101343.41
2023-07-04T21:42:27.047Z,101350.19
2023-07-04T21:44:53.382Z,101356.13
2023-07-04T21:47:19.680Z,101361.69
2023-07-04T21:49:45.974Z,101364.97
2023-07-04T21:52:12.281Z,101362.53
2023-07-04T21:54:38.573Z,101352.16
2023-07-04T21:57:04.847Z,101361.72
2023-07-04T21:59:31.230Z,101361.22
2023-07-04T22:01:57.584Z,101368.84
2023-07-04T22:04:23.974Z,101367.75
2023-07-04T22:06:50.330Z,101361.59
2023-07-04T22:09:16.740Z,101370.66
2023-07-04T22:11:43.082Z,101363.53
2023-07-04T22:14:13.221Z,101365.59
2023-07-04T22:16:46.626Z,101369.81
2023-07-04T22:19:12.968Z,101371.66
2023-07-04T22:21:39.306Z,101372.13
2023-07-04T22:24:05.687Z,101376.72
2023-07-04T22:26:32.022Z,101372.13
2023-07-04T22:28:58.375Z,101367.78
2023-07-04T22:31:24.844Z,101372.13
2023-07-04T22:33:51.284Z,101376.00
2023-07-04T22:36:17.635Z,101370.25
2023-07-04T22:38:43.966Z,101371.72
2023-07-04T22:41:10.320Z,101362.88
2023-07-04T22:43:36.688Z,101370.16
2023-07-04T22:46:03.054Z,101375.59
2023-07-04T22:48:29.448Z,101382.59
2023-07-04T22:50:55.793Z,101388.06
2023-07-04T22:53:22.132Z,101400.66
2023-07-04T22:55:48.449Z,101401.84
2023-07-04T22:58:14.801Z,101395.41
2023-07-04T23:00:41.169Z,101396.06
2023-07-04T23:03:07.626Z,101402.94
2023-07-04T23:05:34.019Z,101394.56
2023-07-04T23:08:00.354Z,101400.00
2023-07-04T23:10:26.654Z,101402.53
2023-07-04T23:12:53.018Z,101408.38
2023-07-04T23:15:19.328Z,101401.97
2023-07-04T23:17:45.753Z,101408.84
2023-07-04T23:20:12.157Z,101407.19
2023-07-04T23:22:38.522Z,101407.66
2023-07-04T23:25:04.863Z,101416.97
2023-07-04T23:27:31.178Z,101411.00
2023-07-04T23:29:57.504Z,101416.31
2023-07-04T23:32:24.135Z,101415.59
2023-07-04T23:34:50.519Z,101420.69
2023-07-04T23:37:16.840Z,101412.47
2023-07-04T23:39:43.189Z,101424.69
2023-07-04T23:42:09.527Z,101422.88
2023-07-04T23:44:35.904Z,101428.09
2023-07-04T23:47:02.212Z,101432.81
2023-07-04T23:49:28.587Z,101432.19
2023-07-04T23:51:54.910Z,101428.91
2023-07-04T23:54:21.241Z,101438.81
2023-07-04T23:56:47.600Z,101432.88
2023-07-04T23:59:13.973Z,101438.31
